sensor_id;sensor_type;location;lat;lon;timestamp;P1;durP1;ratioP1;P2;durP2;ratioP2
75035;SDS011;64247;51.540;5.854;2022-12-07T00:00:35;9.52;;;5.15;;
75035;SDS011;64247;51.540;5.854;2022-12-07T00:04:36;5.40;;;3.90;;
75035;SDS011;64247;51.540;5.854;2022-12-07T00:06:39;5.07;;;3.50;;
75035;SDS011;64247;51.540;5.854;2022-12-07T00:08:42;11.63;;;5.97;;
75035;SDS011;64247;51.540;5.854;2022-12-07T00:10:43;9.30;;;5.00;;
75035;SDS011;64247;51.540;5.854;2022-12-07T00:14:46;8.15;;;4.43;;
75035;SDS011;64247;51.540;5.854;2022-12-07T00:16:48;14.52;;;6.28;;
75035;SDS011;64247;51.540;5.854;2022-12-07T00:18:51;7.43;;;3.80;;
75035;SDS011;64247;51.540;5.854;2022-12-07T00:20:52;6.43;;;4.00;;
75035;SDS011;64247;51.540;5.854;2022-12-07T00:24:53;6.10;;;3.80;;
75035;SDS011;64247;51.540;5.854;2022-12-07T00:28:56;4.78;;;3.53;;
75035;SDS011;64247;51.540;5.854;2022-12-07T00:31:04;4.75;;;2.60;;
75035;SDS011;64247;51.540;5.854;2022-12-07T00:33:16;7.65;;;5.32;;
75035;SDS011;64247;51.540;5.854;2022-12-07T00:37:17;7.22;;;3.75;;
75035;SDS011;64247;51.540;5.854;2022-12-07T00:41:20;6.70;;;4.00;;
75035;SDS011;64247;51.540;5.854;2022-12-07T00:43:23;10.38;;;4.55;;
75035;SDS011;64247;51.540;5.854;2022-12-07T00:45:24;9.65;;;5.22;;
75035;SDS011;64247;51.540;5.854;2022-12-07T00:47:25;7.50;;;4.38;;
75035;SDS011;64247;51.540;5.854;2022-12-07T00:51:27;11.20;;;6.72;;
75035;SDS011;64247;51.540;5.854;2022-12-07T00:53:28;6.70;;;4.45;;
75035;SDS011;64247;51.540;5.854;2022-12-07T00:55:32;7.60;;;4.05;;
75035;SDS011;64247;51.540;5.854;2022-12-07T00:57:34;8.45;;;3.75;;
75035;SDS011;64247;51.540;5.854;2022-12-07T01:01:36;6.95;;;3.97;;
75035;SDS011;64247;51.540;5.854;2022-12-07T01:03:37;8.25;;;5.07;;
75035;SDS011;64247;51.540;5.854;2022-12-07T01:05:39;6.82;;;4.63;;
75035;SDS011;64247;51.540;5.854;2022-12-07T01:07:48;9.88;;;6.03;;
75035;SDS011;64247;51.540;5.854;2022-12-07T01:11:50;7.25;;;5.38;;
75035;SDS011;64247;51.540;5.854;2022-12-07T01:13:51;12.10;;;7.50;;
75035;SDS011;64247;51.540;5.854;2022-12-07T01:15:56;11.60;;;5.40;;
75035;SDS011;64247;51.540;5.854;2022-12-07T01:17:59;9.35;;;5.93;;
75035;SDS011;64247;51.540;5.854;2022-12-07T01:22:02;8.98;;;4.50;;
75035;SDS011;64247;51.540;5.854;2022-12-07T01:26:07;9.50;;;4.13;;
75035;SDS011;64247;51.540;5.854;2022-12-07T01:28:12;6.85;;;4.28;;
75035;SDS011;64247;51.540;5.854;2022-12-07T01:30:13;6.55;;;4.00;;
75035;SDS011;64247;51.540;5.854;2022-12-07T01:32:14;13.55;;;7.50;;
75035;SDS011;64247;51.540;5.854;2022-12-07T01:36:20;8.05;;;4.25;;
75035;SDS011;64247;51.540;5.854;2022-12-07T01:38:33;6.25;;;4.35;;
75035;SDS011;64247;51.540;5.854;2022-12-07T01:40:34;8.88;;;4.88;;
75035;SDS011;64247;51.540;5.854;2022-12-07T01:47:33;8.75;;;5.32;;
75035;SDS011;64247;51.540;5.854;2022-12-07T01:51:58;9.32;;;4.43;;
75035;SDS011;64247;51.540;5.854;2022-12-07T01:54:29;8.82;;;4.43;;
75035;SDS011;64247;51.540;5.854;2022-12-07T01:56:32;10.80;;;6.07;;
75035;SDS011;64247;51.540;5.854;2022-12-07T01:58:34;7.68;;;5.53;;
75035;SDS011;64247;51.540;5.854;2022-12-07T02:00:36;6.65;;;5.03;;
75035;SDS011;64247;51.540;5.854;2022-12-07T02:02:38;9.85;;;5.05;;
75035;SDS011;64247;51.540;5.854;2022-12-07T02:05:05;11.55;;;4.72;;
75035;SDS011;64247;51.540;5.854;2022-12-07T02:07:07;5.53;;;4.03;;
75035;SDS011;64247;51.540;5.854;2022-12-07T02:09:08;13.52;;;7.60;;
75035;SDS011;64247;51.540;5.854;2022-12-07T02:11:09;15.13;;;6.97;;
75035;SDS011;64247;51.540;5.854;2022-12-07T02:13:12;7.53;;;4.20;;
75035;SDS011;64247;51.540;5.854;2022-12-07T02:15:18;10.35;;;5.68;;
75035;SDS011;64247;51.540;5.854;2022-12-07T02:17:29;10.77;;;5.32;;
75035;SDS011;64247;51.540;5.854;2022-12-07T02:20:17;10.10;;;4.40;;
75035;SDS011;64247;51.540;5.854;2022-12-07T02:32:03;10.13;;;5.28;;
75035;SDS011;64247;51.540;5.854;2022-12-07T02:34:58;6.72;;;4.65;;
75035;SDS011;64247;51.540;5.854;2022-12-07T02:37:12;7.35;;;4.75;;
75035;SDS011;64247;51.540;5.854;2022-12-07T02:41:48;6.88;;;3.78;;
75035;SDS011;64247;51.540;5.854;2022-12-07T02:43:59;6.55;;;3.63;;
75035;SDS011;64247;51.540;5.854;2022-12-07T02:46:07;8.07;;;3.85;;
75035;SDS011;64247;51.540;5.854;2022-12-07T02:48:15;5.15;;;3.63;;
75035;SDS011;64247;51.540;5.854;2022-12-07T02:50:22;9.98;;;5.78;;
75035;SDS011;64247;51.540;5.854;2022-12-07T02:52:23;6.90;;;4.30;;
75035;SDS011;64247;51.540;5.854;2022-12-07T02:56:30;10.65;;;5.50;;
75035;SDS011;64247;51.540;5.854;2022-12-07T03:05:08;5.97;;;4.13;;
75035;SDS011;64247;51.540;5.854;2022-12-07T03:08:02;6.85;;;3.47;;
75035;SDS011;64247;51.540;5.854;2022-12-07T03:16:10;7.93;;;3.88;;
75035;SDS011;64247;51.540;5.854;2022-12-07T03:18:23;5.45;;;3.72;;
75035;SDS011;64247;51.540;5.854;2022-12-07T03:20:29;7.93;;;3.53;;
75035;SDS011;64247;51.540;5.854;2022-12-07T03:22:35;6.65;;;4.60;;
75035;SDS011;64247;51.540;5.854;2022-12-07T03:24:46;7.35;;;4.97;;
75035;SDS011;64247;51.540;5.854;2022-12-07T03:27:09;5.57;;;4.80;;
75035;SDS011;64247;51.540;5.854;2022-12-07T03:30:13;7.88;;;3.80;;
75035;SDS011;64247;51.540;5.854;2022-12-07T03:32:37;9.57;;;5.03;;
75035;SDS011;64247;51.540;5.854;2022-12-07T03:34:56;8.43;;;3.50;;
75035;SDS011;64247;51.540;5.854;2022-12-07T03:38:02;7.57;;;5.50;;
75035;SDS011;64247;51.540;5.854;2022-12-07T03:42:54;10.98;;;4.47;;
75035;SDS011;64247;51.540;5.854;2022-12-07T03:45:00;6.28;;;3.85;;
75035;SDS011;64247;51.540;5.854;2022-12-07T03:51:19;9.38;;;4.40;;
75035;SDS011;64247;51.540;5.854;2022-12-07T03:53:36;12.48;;;5.30;;
75035;SDS011;64247;51.540;5.854;2022-12-07T03:55:46;10.18;;;5.22;;
75035;SDS011;64247;51.540;5.854;2022-12-07T03:57:52;5.15;;;3.88;;
75035;SDS011;64247;51.540;5.854;2022-12-07T04:00:07;8.80;;;4.28;;
75035;SDS011;64247;51.540;5.854;2022-12-07T04:02:13;7.32;;;3.83;;
75035;SDS011;64247;51.540;5.854;2022-12-07T04:04:16;10.25;;;5.78;;
75035;SDS011;64247;51.540;5.854;2022-12-07T04:06:17;7.63;;;3.83;;
75035;SDS011;64247;51.540;5.854;2022-12-07T04:10:19;4.20;;;2.90;;
75035;SDS011;64247;51.540;5.854;2022-12-07T04:12:21;7.25;;;4.53;;
75035;SDS011;64247;51.540;5.854;2022-12-07T04:14:22;7.95;;;5.40;;
75035;SDS011;64247;51.540;5.854;2022-12-07T04:16:23;8.95;;;3.80;;
75035;SDS011;64247;51.540;5.854;2022-12-07T04:20:25;5.30;;;3.90;;
75035;SDS011;64247;51.540;5.854;2022-12-07T04:22:26;6.35;;;3.08;;
75035;SDS011;64247;51.540;5.854;2022-12-07T04:24:27;8.75;;;5.15;;
75035;SDS011;64247;51.540;5.854;2022-12-07T04:26:28;8.93;;;4.97;;
75035;SDS011;64247;51.540;5.854;2022-12-07T04:28:29;7.22;;;4.40;;
75035;SDS011;64247;51.540;5.854;2022-12-07T04:32:30;9.55;;;4.57;;
75035;SDS011;64247;51.540;5.854;2022-12-07T04:34:34;5.00;;;4.13;;
75035;SDS011;64247;51.540;5.854;2022-12-07T04:36:35;8.68;;;4.30;;
75035;SDS011;64247;51.540;5.854;2022-12-07T04:38:36;8.68;;;4.90;;
75035;SDS011;64247;51.540;5.854;2022-12-07T04:40:37;5.38;;;3.88;;
75035;SDS011;64247;51.540;5.854;2022-12-07T04:44:41;4.38;;;2.78;;
75035;SDS011;64247;51.540;5.854;2022-12-07T04:48:43;2.58;;;2.38;;
75035;SDS011;64247;51.540;5.854;2022-12-07T04:52:49;4.60;;;3.60;;
75035;SDS011;64247;51.540;5.854;2022-12-07T04:56:51;4.78;;;2.78;;
75035;SDS011;64247;51.540;5.854;2022-12-07T04:58:53;6.35;;;3.20;;
75035;SDS011;64247;51.540;5.854;2022-12-07T05:00:55;6.07;;;3.45;;
75035;SDS011;64247;51.540;5.854;2022-12-07T05:04:56;11.27;;;3.28;;
75035;SDS011;64247;51.540;5.854;2022-12-07T05:08:58;6.95;;;4.22;;
75035;SDS011;64247;51.540;5.854;2022-12-07T05:13:01;3.85;;;2.63;;
75035;SDS011;64247;51.540;5.854;2022-12-07T05:17:03;10.05;;;2.67;;
75035;SDS011;64247;51.540;5.854;2022-12-07T05:19:04;2.63;;;2.22;;
75035;SDS011;64247;51.540;5.854;2022-12-07T05:21:06;5.22;;;3.53;;
75035;SDS011;64247;51.540;5.854;2022-12-07T05:25:07;10.40;;;3.03;;
75035;SDS011;64247;51.540;5.854;2022-12-07T05:27:08;4.57;;;3.00;;
75035;SDS011;64247;51.540;5.854;2022-12-07T05:31:13;6.15;;;4.53;;
75035;SDS011;64247;51.540;5.854;2022-12-07T05:35:15;4.85;;;3.72;;
75035;SDS011;64247;51.540;5.854;2022-12-07T05:37:16;7.60;;;4.30;;
75035;SDS011;64247;51.540;5.854;2022-12-07T05:41:18;3.15;;;2.53;;
75035;SDS011;64247;51.540;5.854;2022-12-07T05:45:38;6.95;;;3.97;;
75035;SDS011;64247;51.540;5.854;2022-12-07T05:47:39;2.97;;;2.30;;
75035;SDS011;64247;51.540;5.854;2022-12-07T05:49:40;10.35;;;4.50;;
75035;SDS011;64247;51.540;5.854;2022-12-07T05:51:44;7.78;;;5.05;;
75035;SDS011;64247;51.540;5.854;2022-12-07T05:55:45;6.90;;;3.83;;
75035;SDS011;64247;51.540;5.854;2022-12-07T06:00:06;7.65;;;4.25;;
75035;SDS011;64247;51.540;5.854;2022-12-07T06:02:27;9.55;;;4.60;;
75035;SDS011;64247;51.540;5.854;2022-12-07T06:06:32;9.40;;;4.57;;
75035;SDS011;64247;51.540;5.854;2022-12-07T06:10:33;10.25;;;3.92;;
75035;SDS011;64247;51.540;5.854;2022-12-07T06:14:35;4.05;;;3.17;;
75035;SDS011;64247;51.540;5.854;2022-12-07T06:16:36;7.13;;;4.65;;
75035;SDS011;64247;51.540;5.854;2022-12-07T06:20:38;8.43;;;4.43;;
75035;SDS011;64247;51.540;5.854;2022-12-07T06:24:40;6.72;;;3.55;;
75035;SDS011;64247;51.540;5.854;2022-12-07T06:28:42;6.93;;;4.63;;
75035;SDS011;64247;51.540;5.854;2022-12-07T06:32:43;6.97;;;3.83;;
75035;SDS011;64247;51.540;5.854;2022-12-07T06:34:44;8.77;;;5.20;;
75035;SDS011;64247;51.540;5.854;2022-12-07T06:36:46;8.57;;;4.90;;
75035;SDS011;64247;51.540;5.854;2022-12-07T06:38:52;9.57;;;4.97;;
75035;SDS011;64247;51.540;5.854;2022-12-07T06:40:53;11.27;;;5.28;;
75035;SDS011;64247;51.540;5.854;2022-12-07T06:42:54;7.25;;;4.32;;
75035;SDS011;64247;51.540;5.854;2022-12-07T06:46:56;7.38;;;4.20;;
75035;SDS011;64247;51.540;5.854;2022-12-07T06:50:58;4.57;;;3.40;;
75035;SDS011;64247;51.540;5.854;2022-12-07T06:54:59;6.45;;;3.60;;
75035;SDS011;64247;51.540;5.854;2022-12-07T06:59:01;8.10;;;3.88;;
75035;SDS011;64247;51.540;5.854;2022-12-07T07:01:02;9.68;;;5.07;;
75035;SDS011;64247;51.540;5.854;2022-12-07T07:03:09;10.05;;;4.75;;
75035;SDS011;64247;51.540;5.854;2022-12-07T07:05:10;5.15;;;3.20;;
75035;SDS011;64247;51.540;5.854;2022-12-07T07:09:11;7.63;;;3.45;;
75035;SDS011;64247;51.540;5.854;2022-12-07T07:13:13;7.30;;;3.17;;
75035;SDS011;64247;51.540;5.854;2022-12-07T07:17:15;9.48;;;3.83;;
75035;SDS011;64247;51.540;5.854;2022-12-07T07:21:16;3.58;;;2.53;;
75035;SDS011;64247;51.540;5.854;2022-12-07T07:25:19;11.18;;;4.47;;
75035;SDS011;64247;51.540;5.854;2022-12-07T07:27:20;6.13;;;4.22;;
75035;SDS011;64247;51.540;5.854;2022-12-07T07:31:22;4.97;;;3.80;;
75035;SDS011;64247;51.540;5.854;2022-12-07T07:35:24;5.85;;;3.90;;
75035;SDS011;64247;51.540;5.854;2022-12-07T07:37:26;4.68;;;2.42;;
75035;SDS011;64247;51.540;5.854;2022-12-07T07:41:27;5.07;;;2.67;;
75035;SDS011;64247;51.540;5.854;2022-12-07T07:45:29;9.50;;;4.18;;
75035;SDS011;64247;51.540;5.854;2022-12-07T07:47:33;10.13;;;5.43;;
75035;SDS011;64247;51.540;5.854;2022-12-07T07:49:34;6.43;;;4.40;;
75035;SDS011;64247;51.540;5.854;2022-12-07T07:53:35;6.18;;;3.95;;
75035;SDS011;64247;51.540;5.854;2022-12-07T07:55:36;7.13;;;5.25;;
75035;SDS011;64247;51.540;5.854;2022-12-07T07:59:39;5.40;;;3.83;;
75035;SDS011;64247;51.540;5.854;2022-12-07T08:03:41;6.57;;;3.85;;
75035;SDS011;64247;51.540;5.854;2022-12-07T08:07:43;4.30;;;3.17;;
75035;SDS011;64247;51.540;5.854;2022-12-07T08:09:44;6.68;;;3.80;;
75035;SDS011;64247;51.540;5.854;2022-12-07T08:13:46;7.00;;;4.72;;
75035;SDS011;64247;51.540;5.854;2022-12-07T08:15:47;8.48;;;5.22;;
75035;SDS011;64247;51.540;5.854;2022-12-07T08:17:48;6.10;;;4.10;;
75035;SDS011;64247;51.540;5.854;2022-12-07T08:21:50;14.25;;;5.00;;
75035;SDS011;64247;51.540;5.854;2022-12-07T08:25:51;7.38;;;4.10;;
75035;SDS011;64247;51.540;5.854;2022-12-07T08:29:53;5.82;;;3.85;;
75035;SDS011;64247;51.540;5.854;2022-12-07T08:33:55;7.60;;;3.38;;
75035;SDS011;64247;51.540;5.854;2022-12-07T08:36:03;4.97;;;3.97;;
75035;SDS011;64247;51.540;5.854;2022-12-07T08:38:07;5.70;;;4.10;;
75035;SDS011;64247;51.540;5.854;2022-12-07T08:40:09;7.53;;;4.32;;
75035;SDS011;64247;51.540;5.854;2022-12-07T08:42:15;6.18;;;4.07;;
75035;SDS011;64247;51.540;5.854;2022-12-07T08:44:16;4.65;;;3.20;;
75035;SDS011;64247;51.540;5.854;2022-12-07T08:48:50;8.00;;;4.05;;
75035;SDS011;64247;51.540;5.854;2022-12-07T08:51:05;5.85;;;3.70;;
75035;SDS011;64247;51.540;5.854;2022-12-07T08:53:07;6.80;;;3.22;;
75035;SDS011;64247;51.540;5.854;2022-12-07T08:55:09;8.07;;;3.53;;
75035;SDS011;64247;51.540;5.854;2022-12-07T08:57:12;5.15;;;3.13;;
75035;SDS011;64247;51.540;5.854;2022-12-07T08:59:13;5.38;;;3.63;;
75035;SDS011;64247;51.540;5.854;2022-12-07T09:01:17;6.10;;;3.13;;
75035;SDS011;64247;51.540;5.854;2022-12-07T09:03:18;4.00;;;2.90;;
75035;SDS011;64247;51.540;5.854;2022-12-07T09:05:19;4.63;;;2.95;;
75035;SDS011;64247;51.540;5.854;2022-12-07T09:07:20;3.75;;;2.65;;
75035;SDS011;64247;51.540;5.854;2022-12-07T09:09:21;3.83;;;2.67;;
75035;SDS011;64247;51.540;5.854;2022-12-07T09:11:22;4.40;;;2.53;;
75035;SDS011;64247;51.540;5.854;2022-12-07T09:13:23;2.60;;;1.98;;
75035;SDS011;64247;51.540;5.854;2022-12-07T09:15:24;2.95;;;2.08;;
75035;SDS011;64247;51.540;5.854;2022-12-07T09:17:25;3.47;;;1.77;;
75035;SDS011;64247;51.540;5.854;2022-12-07T09:19:25;1.23;;;1.13;;
75035;SDS011;64247;51.540;5.854;2022-12-07T09:21:26;2.95;;;2.20;;
75035;SDS011;64247;51.540;5.854;2022-12-07T09:23:27;3.55;;;2.13;;
75035;SDS011;64247;51.540;5.854;2022-12-07T09:25:27;4.50;;;2.15;;
75035;SDS011;64247;51.540;5.854;2022-12-07T09:27:28;2.53;;;1.30;;
75035;SDS011;64247;51.540;5.854;2022-12-07T09:29:29;5.97;;;2.20;;
75035;SDS011;64247;51.540;5.854;2022-12-07T09:31:35;2.00;;;1.63;;
75035;SDS011;64247;51.540;5.854;2022-12-07T09:33:36;6.13;;;2.20;;
75035;SDS011;64247;51.540;5.854;2022-12-07T09:35:37;2.55;;;2.20;;
75035;SDS011;64247;51.540;5.854;2022-12-07T09:37:38;2.90;;;1.35;;
75035;SDS011;64247;51.540;5.854;2022-12-07T09:39:39;2.70;;;2.13;;
75035;SDS011;64247;51.540;5.854;2022-12-07T09:41:41;3.00;;;1.45;;
75035;SDS011;64247;51.540;5.854;2022-12-07T09:43:45;1.23;;;1.13;;
75035;SDS011;64247;51.540;5.854;2022-12-07T09:45:47;2.10;;;2.00;;
75035;SDS011;64247;51.540;5.854;2022-12-07T09:47:50;2.47;;;2.22;;
75035;SDS011;64247;51.540;5.854;2022-12-07T09:49:51;2.58;;;1.10;;
75035;SDS011;64247;51.540;5.854;2022-12-07T09:52:39;5.20;;;1.95;;
75035;SDS011;64247;51.540;5.854;2022-12-07T09:54:25;1.75;;;1.48;;
75035;SDS011;64247;51.540;5.854;2022-12-07T09:56:28;2.78;;;1.42;;
75035;SDS011;64247;51.540;5.854;2022-12-07T09:58:33;3.47;;;1.77;;
75035;SDS011;64247;51.540;5.854;2022-12-07T10:00:34;2.38;;;1.45;;
75035;SDS011;64247;51.540;5.854;2022-12-07T10:02:39;2.17;;;1.67;;
75035;SDS011;64247;51.540;5.854;2022-12-07T10:04:43;2.95;;;2.10;;
75035;SDS011;64247;51.540;5.854;2022-12-07T10:06:45;7.82;;;2.13;;
75035;SDS011;64247;51.540;5.854;2022-12-07T10:08:46;6.82;;;2.03;;
75035;SDS011;64247;51.540;5.854;2022-12-07T10:10:52;2.72;;;1.50;;
75035;SDS011;64247;51.540;5.854;2022-12-07T10:13:00;4.07;;;1.60;;
75035;SDS011;64247;51.540;5.854;2022-12-07T10:15:03;8.27;;;2.15;;
75035;SDS011;64247;51.540;5.854;2022-12-07T10:19:54;2.88;;;1.67;;
75035;SDS011;64247;51.540;5.854;2022-12-07T10:22:32;6.35;;;1.77;;
75035;SDS011;64247;51.540;5.854;2022-12-07T10:24:32;8.20;;;2.33;;
75035;SDS011;64247;51.540;5.854;2022-12-07T10:26:34;6.85;;;2.70;;
75035;SDS011;64247;51.540;5.854;2022-12-07T10:28:36;4.18;;;1.95;;
75035;SDS011;64247;51.540;5.854;2022-12-07T10:30:56;2.03;;;1.58;;
75035;SDS011;64247;51.540;5.854;2022-12-07T10:32:59;1.70;;;1.33;;
75035;SDS011;64247;51.540;5.854;2022-12-07T10:37:22;4.30;;;1.63;;
75035;SDS011;64247;51.540;5.854;2022-12-07T10:39:27;2.63;;;1.02;;
75035;SDS011;64247;51.540;5.854;2022-12-07T10:41:28;4.35;;;1.35;;
75035;SDS011;64247;51.540;5.854;2022-12-07T10:43:29;4.82;;;1.63;;
75035;SDS011;64247;51.540;5.854;2022-12-07T10:45:30;2.75;;;1.88;;
75035;SDS011;64247;51.540;5.854;2022-12-07T11:04:22;2.15;;;1.00;;
75035;SDS011;64247;51.540;5.854;2022-12-07T11:09:44;1.35;;;1.00;;
75035;SDS011;64247;51.540;5.854;2022-12-07T11:14:44;2.60;;;1.33;;
75035;SDS011;64247;51.540;5.854;2022-12-07T11:17:09;6.05;;;1.30;;
75035;SDS011;64247;51.540;5.854;2022-12-07T11:19:24;2.35;;;1.25;;
75035;SDS011;64247;51.540;5.854;2022-12-07T11:22:03;3.85;;;1.30;;
75035;SDS011;64247;51.540;5.854;2022-12-07T11:24:18;0.93;;;0.80;;
75035;SDS011;64247;51.540;5.854;2022-12-07T11:30:10;5.30;;;1.50;;
75035;SDS011;64247;51.540;5.854;2022-12-07T11:32:51;1.20;;;1.10;;
75035;SDS011;64247;51.540;5.854;2022-12-07T11:35:37;1.33;;;0.95;;
75035;SDS011;64247;51.540;5.854;2022-12-07T11:38:22;3.20;;;1.20;;
75035;SDS011;64247;51.540;5.854;2022-12-07T11:40:35;0.95;;;0.95;;
75035;SDS011;64247;51.540;5.854;2022-12-07T11:42:41;2.33;;;0.93;;
75035;SDS011;64247;51.540;5.854;2022-12-07T11:47:21;3.85;;;1.13;;
75035;SDS011;64247;51.540;5.854;2022-12-07T11:49:51;2.97;;;0.93;;
75035;SDS011;64247;51.540;5.854;2022-12-07T11:52:04;2.45;;;0.65;;
75035;SDS011;64247;51.540;5.854;2022-12-07T11:54:26;1.98;;;1.00;;
75035;SDS011;64247;51.540;5.854;2022-12-07T11:56:35;1.55;;;1.05;;
75035;SDS011;64247;51.540;5.854;2022-12-07T11:58:42;1.70;;;1.60;;
75035;SDS011;64247;51.540;5.854;2022-12-07T12:06:56;2.05;;;1.20;;
75035;SDS011;64247;51.540;5.854;2022-12-07T12:16:13;1.85;;;0.60;;
75035;SDS011;64247;51.540;5.854;2022-12-07T12:19:17;3.78;;;1.20;;
75035;SDS011;64247;51.540;5.854;2022-12-07T12:21:26;2.60;;;1.33;;
75035;SDS011;64247;51.540;5.854;2022-12-07T12:23:43;2.17;;;0.63;;
75035;SDS011;64247;51.540;5.854;2022-12-07T12:25:58;1.42;;;0.80;;
75035;SDS011;64247;51.540;5.854;2022-12-07T12:28:04;1.55;;;0.70;;
75035;SDS011;64247;51.540;5.854;2022-12-07T12:30:06;2.15;;;0.80;;
75035;SDS011;64247;51.540;5.854;2022-12-07T12:32:45;1.08;;;0.60;;
75035;SDS011;64247;51.540;5.854;2022-12-07T12:37:42;2.53;;;1.52;;
75035;SDS011;64247;51.540;5.854;2022-12-07T12:40:03;3.03;;;1.25;;
75035;SDS011;64247;51.540;5.854;2022-12-07T12:45:43;2.05;;;1.25;;
75035;SDS011;64247;51.540;5.854;2022-12-07T12:50:36;5.07;;;0.85;;
75035;SDS011;64247;51.540;5.854;2022-12-07T12:55:30;1.30;;;0.82;;
75035;SDS011;64247;51.540;5.854;2022-12-07T13:00:41;1.55;;;0.80;;
75035;SDS011;64247;51.540;5.854;2022-12-07T13:07:51;4.53;;;0.98;;
75035;SDS011;64247;51.540;5.854;2022-12-07T13:11:19;3.90;;;0.88;;
75035;SDS011;64247;51.540;5.854;2022-12-07T13:13:48;1.05;;;0.60;;
75035;SDS011;64247;51.540;5.854;2022-12-07T13:19:53;2.28;;;0.85;;
75035;SDS011;64247;51.540;5.854;2022-12-07T13:21:55;2.70;;;0.80;;
75035;SDS011;64247;51.540;5.854;2022-12-07T13:23:59;1.90;;;0.90;;
75035;SDS011;64247;51.540;5.854;2022-12-07T13:26:17;6.72;;;1.02;;
75035;SDS011;64247;51.540;5.854;2022-12-07T13:28:51;0.77;;;0.30;;
75035;SDS011;64247;51.540;5.854;2022-12-07T13:33:42;0.75;;;0.75;;
75035;SDS011;64247;51.540;5.854;2022-12-07T13:35:45;0.63;;;0.40;;
75035;SDS011;64247;51.540;5.854;2022-12-07T13:37:46;4.25;;;0.82;;
75035;SDS011;64247;51.540;5.854;2022-12-07T13:39:51;1.10;;;0.65;;
75035;SDS011;64247;51.540;5.854;2022-12-07T13:41:57;2.88;;;0.82;;
75035;SDS011;64247;51.540;5.854;2022-12-07T13:44:12;3.25;;;0.68;;
75035;SDS011;64247;51.540;5.854;2022-12-07T13:46:15;0.52;;;0.43;;
75035;SDS011;64247;51.540;5.854;2022-12-07T13:49:04;0.20;;;0.20;;
75035;SDS011;64247;51.540;5.854;2022-12-07T13:50:56;2.50;;;0.40;;
75035;SDS011;64247;51.540;5.854;2022-12-07T13:53:01;1.20;;;0.60;;
75035;SDS011;64247;51.540;5.854;2022-12-07T13:55:13;3.38;;;1.27;;
75035;SDS011;64247;51.540;5.854;2022-12-07T13:57:19;4.65;;;0.75;;
75035;SDS011;64247;51.540;5.854;2022-12-07T13:59:22;4.15;;;1.25;;
75035;SDS011;64247;51.540;5.854;2022-12-07T14:01:26;2.67;;;1.10;;
75035;SDS011;64247;51.540;5.854;2022-12-07T14:03:32;2.17;;;1.00;;
75035;SDS011;64247;51.540;5.854;2022-12-07T14:05:36;2.28;;;1.17;;
75035;SDS011;64247;51.540;5.854;2022-12-07T14:10:26;1.20;;;0.82;;
75035;SDS011;64247;51.540;5.854;2022-12-07T14:12:52;1.50;;;1.13;;
75035;SDS011;64247;51.540;5.854;2022-12-07T14:14:55;2.13;;;1.48;;
75035;SDS011;64247;51.540;5.854;2022-12-07T14:17:17;8.95;;;1.52;;
75035;SDS011;64247;51.540;5.854;2022-12-07T14:19:40;9.30;;;1.45;;
75035;SDS011;64247;51.540;5.854;2022-12-07T14:22:05;2.15;;;1.42;;
75035;SDS011;64247;51.540;5.854;2022-12-07T14:24:14;2.78;;;1.23;;
75035;SDS011;64247;51.540;5.854;2022-12-07T14:26:19;2.92;;;1.17;;
75035;SDS011;64247;51.540;5.854;2022-12-07T14:30:42;4.72;;;1.40;;
75035;SDS011;64247;51.540;5.854;2022-12-07T14:32:43;5.47;;;1.58;;
75035;SDS011;64247;51.540;5.854;2022-12-07T14:37:18;3.67;;;1.45;;
75035;SDS011;64247;51.540;5.854;2022-12-07T14:39:19;6.65;;;1.17;;
75035;SDS011;64247;51.540;5.854;2022-12-07T14:41:20;5.65;;;1.15;;
75035;SDS011;64247;51.540;5.854;2022-12-07T14:43:41;1.80;;;1.25;;
75035;SDS011;64247;51.540;5.854;2022-12-07T14:45:42;3.33;;;0.90;;
75035;SDS011;64247;51.540;5.854;2022-12-07T14:47:44;1.92;;;0.70;;
75035;SDS011;64247;51.540;5.854;2022-12-07T14:49:46;0.50;;;0.40;;
75035;SDS011;64247;51.540;5.854;2022-12-07T14:51:47;1.17;;;0.77;;
75035;SDS011;64247;51.540;5.854;2022-12-07T14:53:49;3.13;;;1.58;;
75035;SDS011;64247;51.540;5.854;2022-12-07T14:55:52;1.92;;;0.45;;
75035;SDS011;64247;51.540;5.854;2022-12-07T14:57:53;4.20;;;1.35;;
75035;SDS011;64247;51.540;5.854;2022-12-07T14:59:55;2.33;;;0.95;;
75035;SDS011;64247;51.540;5.854;2022-12-07T15:01:56;0.88;;;0.68;;
75035;SDS011;64247;51.540;5.854;2022-12-07T15:03:57;2.15;;;0.70;;
75035;SDS011;64247;51.540;5.854;2022-12-07T15:05:57;1.75;;;1.33;;
75035;SDS011;64247;51.540;5.854;2022-12-07T15:07:58;1.83;;;1.23;;
75035;SDS011;64247;51.540;5.854;2022-12-07T15:09:59;2.00;;;0.85;;
75035;SDS011;64247;51.540;5.854;2022-12-07T15:12:00;1.75;;;1.20;;
75035;SDS011;64247;51.540;5.854;2022-12-07T15:14:02;1.65;;;1.10;;
75035;SDS011;64247;51.540;5.854;2022-12-07T15:16:13;1.40;;;0.95;;
75035;SDS011;64247;51.540;5.854;2022-12-07T15:18:20;1.60;;;0.82;;
75035;SDS011;64247;51.540;5.854;2022-12-07T15:20:23;2.20;;;1.08;;
75035;SDS011;64247;51.540;5.854;2022-12-07T15:22:24;1.50;;;0.80;;
75035;SDS011;64247;51.540;5.854;2022-12-07T15:24:25;1.20;;;0.73;;
75035;SDS011;64247;51.540;5.854;2022-12-07T15:26:27;0.65;;;0.52;;
75035;SDS011;64247;51.540;5.854;2022-12-07T15:28:27;0.57;;;0.57;;
75035;SDS011;64247;51.540;5.854;2022-12-07T15:32:29;3.30;;;0.82;;
75035;SDS011;64247;51.540;5.854;2022-12-07T15:34:30;2.42;;;0.68;;
75035;SDS011;64247;51.540;5.854;2022-12-07T15:36:32;3.40;;;1.00;;
75035;SDS011;64247;51.540;5.854;2022-12-07T15:38:35;1.95;;;1.00;;
75035;SDS011;64247;51.540;5.854;2022-12-07T15:40:36;2.58;;;1.00;;
75035;SDS011;64247;51.540;5.854;2022-12-07T15:42:37;4.10;;;1.00;;
75035;SDS011;64247;51.540;5.854;2022-12-07T15:44:38;2.15;;;1.25;;
75035;SDS011;64247;51.540;5.854;2022-12-07T15:46:58;4.03;;;1.02;;
75035;SDS011;64247;51.540;5.854;2022-12-07T15:49:02;3.10;;;0.93;;
75035;SDS011;64247;51.540;5.854;2022-12-07T15:51:07;1.83;;;0.80;;
75035;SDS011;64247;51.540;5.854;2022-12-07T15:53:09;2.28;;;1.20;;
75035;SDS011;64247;51.540;5.854;2022-12-07T15:55:10;1.45;;;0.95;;
75035;SDS011;64247;51.540;5.854;2022-12-07T15:57:10;1.17;;;1.08;;
75035;SDS011;64247;51.540;5.854;2022-12-07T16:01:13;2.33;;;1.48;;
75035;SDS011;64247;51.540;5.854;2022-12-07T16:03:17;1.88;;;1.15;;
75035;SDS011;64247;51.540;5.854;2022-12-07T16:05:18;1.45;;;1.17;;
75035;SDS011;64247;51.540;5.854;2022-12-07T16:07:19;4.65;;;2.60;;
75035;SDS011;64247;51.540;5.854;2022-12-07T16:11:21;1.95;;;1.80;;
75035;SDS011;64247;51.540;5.854;2022-12-07T16:13:22;4.70;;;2.47;;
75035;SDS011;64247;51.540;5.854;2022-12-07T16:15:23;3.05;;;1.80;;
75035;SDS011;64247;51.540;5.854;2022-12-07T16:17:25;3.67;;;2.15;;
75035;SDS011;64247;51.540;5.854;2022-12-07T16:19:26;7.72;;;2.42;;
75035;SDS011;64247;51.540;5.854;2022-12-07T16:21:27;5.40;;;2.95;;
75035;SDS011;64247;51.540;5.854;2022-12-07T16:23:28;4.22;;;2.53;;
75035;SDS011;64247;51.540;5.854;2022-12-07T16:25:29;3.47;;;2.72;;
75035;SDS011;64247;51.540;5.854;2022-12-07T16:27:30;4.85;;;2.60;;
75035;SDS011;64247;51.540;5.854;2022-12-07T16:29:31;2.83;;;2.20;;
75035;SDS011;64247;51.540;5.854;2022-12-07T16:33:34;1.83;;;1.73;;
75035;SDS011;64247;51.540;5.854;2022-12-07T16:35:37;2.63;;;1.90;;
75035;SDS011;64247;51.540;5.854;2022-12-07T16:37:41;3.47;;;2.45;;
75035;SDS011;64247;51.540;5.854;2022-12-07T16:39:43;4.85;;;1.63;;
75035;SDS011;64247;51.540;5.854;2022-12-07T16:41:44;3.85;;;2.25;;
75035;SDS011;64247;51.540;5.854;2022-12-07T16:43:45;1.45;;;1.35;;
75035;SDS011;64247;51.540;5.854;2022-12-07T16:45:46;2.30;;;1.48;;
75035;SDS011;64247;51.540;5.854;2022-12-07T16:47:50;3.17;;;2.15;;
75035;SDS011;64247;51.540;5.854;2022-12-07T16:49:50;5.53;;;2.75;;
75035;SDS011;64247;51.540;5.854;2022-12-07T16:51:52;2.45;;;2.25;;